sensor_id;sensor_type;location;lat;lon;timestamp;temperature;humidity
39347;DHT22;26262;49.836;6.632;2024-02-21T00:00:35;7.10;99.90
39347;DHT22;26262;49.836;6.632;2024-02-21T00:03:03;7.10;99.90
39347;DHT22;26262;49.836;6.632;2024-02-21T00:05:30;7.00;99.90
39347;DHT22;26262;49.836;6.632;2024-02-21T00:07:57;7.10;99.90
39347;DHT22;26262;49.836;6.632;2024-02-21T00:10:23;7.10;99.90
39347;DHT22;26262;49.836;6.632;2024-02-21T00:12:48;7.10;99.90
39347;DHT22;26262;49.836;6.632;2024-02-21T00:15:14;7.10;99.90
39347;DHT22;26262;49.836;6.632;2024-02-21T00:17:40;7.00;99.90
39347;DHT22;26262;49.836;6.632;2024-02-21T00:20:07;7.00;99.90
39347;DHT22;26262;49.836;6.632;2024-02-21T00:22:32;7.10;99.90
39347;DHT22;26262;49.836;6.632;2024-02-21T00:24:59;7.10;99.90
39347;DHT22;26262;49.836;6.632;2024-02-21T00:27:24;7.20;99.90
39347;DHT22;26262;49.836;6.632;2024-02-21T00:29:50;7.10;99.90
39347;DHT22;26262;49.836;6.632;2024-02-21T00:32:15;7.10;99.90
39347;DHT22;26262;49.836;6.632;2024-02-21T00:34:41;7.10;99.90
39347;DHT22;26262;49.836;6.632;2024-02-21T00:37:06;7.10;99.90
39347;DHT22;26262;49.836;6.632;2024-02-21T00:39:32;7.10;99.90
39347;DHT22;26262;49.836;6.632;2024-02-21T00:41:57;7.10;99.90
39347;DHT22;26262;49.836;6.632;2024-02-21T00:44:23;7.10;99.90
39347;DHT22;26262;49.836;6.632;2024-02-21T00:46:48;7.20;99.90
39347;DHT22;26262;49.836;6.632;2024-02-21T00:49:14;7.20;99.90
39347;DHT22;26262;49.836;6.632;2024-02-21T00:51:40;7.20;99.90
39347;DHT22;26262;49.836;6.632;2024-02-21T00:54:05;7.20;99.90
39347;DHT22;26262;49.836;6.632;2024-02-21T00:56:31;7.20;99.90
39347;DHT22;26262;49.836;6.632;2024-02-21T00:58:57;7.20;99.90
39347;DHT22;26262;49.836;6.632;2024-02-21T01:01:23;7.30;99.90
39347;DHT22;26262;49.836;6.632;2024-02-21T01:03:50;7.20;99.90
39347;DHT22;26262;49.836;6.632;2024-02-21T01:06:16;7.30;99.90
39347;DHT22;26262;49.836;6.632;2024-02-21T01:08:42;7.30;99.90
39347;DHT22;26262;49.836;6.632;2024-02-21T01:11:07;7.30;99.90
39347;DHT22;26262;49.836;6.632;2024-02-21T01:13:33;7.30;99.90
39347;DHT22;26262;49.836;6.632;2024-02-21T01:15:58;7.30;99.90
39347;DHT22;26262;49.836;6.632;2024-02-21T01:18:24;7.30;99.90
39347;DHT22;26262;49.836;6.632;2024-02-21T01:20:49;7.20;99.90
39347;DHT22;26262;49.836;6.632;2024-02-21T01:23:15;7.30;99.90
39347;DHT22;26262;49.836;6.632;2024-02-21T01:25:40;7.20;99.90
39347;DHT22;26262;49.836;6.632;2024-02-21T01:28:06;7.30;99.90
39347;DHT22;26262;49.836;6.632;2024-02-21T01:30:32;7.30;99.90
39347;DHT22;26262;49.836;6.632;2024-02-21T01:32:57;7.40;99.90
39347;DHT22;26262;49.836;6.632;2024-02-21T01:35:23;7.30;99.90
39347;DHT22;26262;49.836;6.632;2024-02-21T01:37:48;7.30;99.90
39347;DHT22;26262;49.836;6.632;2024-02-21T01:40:15;7.30;99.90
39347;DHT22;26262;49.836;6.632;2024-02-21T01:42:40;7.30;99.90
39347;DHT22;26262;49.836;6.632;2024-02-21T01:45:06;7.30;99.90
39347;DHT22;26262;49.836;6.632;2024-02-21T01:47:32;7.20;99.90
39347;DHT22;26262;49.836;6.632;2024-02-21T01:49:57;7.30;99.90
39347;DHT22;26262;49.836;6.632;2024-02-21T01:52:23;7.40;99.90
39347;DHT22;26262;49.836;6.632;2024-02-21T01:54:49;7.60;99.90
39347;DHT22;26262;49.836;6.632;2024-02-21T01:57:15;7.60;99.90
39347;DHT22;26262;49.836;6.632;2024-02-21T01:59:40;7.60;99.90
39347;DHT22;26262;49.836;6.632;2024-02-21T02:02:06;7.50;99.90
39347;DHT22;26262;49.836;6.632;2024-02-21T02:04:32;7.50;99.90
39347;DHT22;26262;49.836;6.632;2024-02-21T02:07:00;7.40;99.90
39347;DHT22;26262;49.836;6.632;2024-02-21T02:09:27;7.50;99.90
39347;DHT22;26262;49.836;6.632;2024-02-21T02:11:53;7.50;99.90
39347;DHT22;26262;49.836;6.632;2024-02-21T02:14:19;7.50;99.90
39347;DHT22;26262;49.836;6.632;2024-02-21T02:16:47;7.60;99.90
39347;DHT22;26262;49.836;6.632;2024-02-21T02:19:13;7.60;99.90
39347;DHT22;26262;49.836;6.632;2024-02-21T02:21:40;7.60;99.90
39347;DHT22;26262;49.836;6.632;2024-02-21T02:24:07;7.50;99.90
39347;DHT22;26262;49.836;6.632;2024-02-21T02:26:33;7.60;99.90
39347;DHT22;26262;49.836;6.632;2024-02-21T02:29:01;7.60;99.90
39347;DHT22;26262;49.836;6.632;2024-02-21T02:31:27;7.60;99.90
39347;DHT22;26262;49.836;6.632;2024-02-21T02:33:53;7.50;99.90
39347;DHT22;26262;49.836;6.632;2024-02-21T02:36:18;7.40;99.90
39347;DHT22;26262;49.836;6.632;2024-02-21T02:38:44;7.50;99.90
39347;DHT22;26262;49.836;6.632;2024-02-21T02:41:10;7.30;99.90
39347;DHT22;26262;49.836;6.632;2024-02-21T02:43:35;7.40;99.90
39347;DHT22;26262;49.836;6.632;2024-02-21T02:46:02;7.30;99.90
39347;DHT22;26262;49.836;6.632;2024-02-21T02:48:27;7.30;99.90
39347;DHT22;26262;49.836;6.632;2024-02-21T02:50:53;7.30;99.90
39347;DHT22;26262;49.836;6.632;2024-02-21T02:53:18;7.30;99.90
39347;DHT22;26262;49.836;6.632;2024-02-21T02:55:44;7.20;99.90
39347;DHT22;26262;49.836;6.632;2024-02-21T02:58:10;7.10;99.90
39347;DHT22;26262;49.836;6.632;2024-02-21T03:00:35;7.10;99.90
39347;DHT22;26262;49.836;6.632;2024-02-21T03:03:01;7.10;99.90
39347;DHT22;26262;49.836;6.632;2024-02-21T03:05:29;7.20;99.90
39347;DHT22;26262;49.836;6.632;2024-02-21T03:07:54;7.10;99.90
39347;DHT22;26262;49.836;6.632;2024-02-21T03:10:20;7.20;99.90
39347;DHT22;26262;49.836;6.632;2024-02-21T03:12:46;7.30;99.90
39347;DHT22;26262;49.836;6.632;2024-02-21T03:15:12;7.20;99.90
39347;DHT22;26262;49.836;6.632;2024-02-21T03:17:38;7.20;99.90
39347;DHT22;26262;49.836;6.632;2024-02-21T03:20:05;7.30;99.90
39347;DHT22;26262;49.836;6.632;2024-02-21T03:22:31;7.30;99.90
39347;DHT22;26262;49.836;6.632;2024-02-21T03:24:57;7.40;99.90
39347;DHT22;26262;49.836;6.632;2024-02-21T03:27:23;7.40;99.90
39347;DHT22;26262;49.836;6.632;2024-02-21T03:29:48;7.30;99.90
39347;DHT22;26262;49.836;6.632;2024-02-21T03:32:14;7.30;99.90
39347;DHT22;26262;49.836;6.632;2024-02-21T03:34:39;7.40;99.90
39347;DHT22;26262;49.836;6.632;2024-02-21T03:37:05;7.30;99.90
39347;DHT22;26262;49.836;6.632;2024-02-21T03:39:31;7.40;99.90
39347;DHT22;26262;49.836;6.632;2024-02-21T03:41:57;7.40;99.90
39347;DHT22;26262;49.836;6.632;2024-02-21T03:44:23;7.30;99.90
39347;DHT22;26262;49.836;6.632;2024-02-21T03:46:49;7.30;99.90
39347;DHT22;26262;49.836;6.632;2024-02-21T03:49:14;7.30;99.90
39347;DHT22;26262;49.836;6.632;2024-02-21T03:51:40;7.30;99.90
39347;DHT22;26262;49.836;6.632;2024-02-21T03:54:05;7.20;99.90
39347;DHT22;26262;49.836;6.632;2024-02-21T03:56:31;7.30;99.90
39347;DHT22;26262;49.836;6.632;2024-02-21T03:58:56;7.20;99.90
39347;DHT22;26262;49.836;6.632;2024-02-21T04:01:22;7.20;99.90
39347;DHT22;26262;49.836;6.632;2024-02-21T04:03:48;7.20;99.90
39347;DHT22;26262;49.836;6.632;2024-02-21T04:06:13;7.20;99.90
39347;DHT22;26262;49.836;6.632;2024-02-21T04:08:39;7.10;99.90
39347;DHT22;26262;49.836;6.632;2024-02-21T04:11:04;7.10;99.90
39347;DHT22;26262;49.836;6.632;2024-02-21T04:13:30;7.10;99.90
39347;DHT22;26262;49.836;6.632;2024-02-21T04:15:55;7.30;99.90
39347;DHT22;26262;49.836;6.632;2024-02-21T04:18:22;7.30;99.90
39347;DHT22;26262;49.836;6.632;2024-02-21T04:20:47;7.20;99.90
39347;DHT22;26262;49.836;6.632;2024-02-21T04:23:13;7.20;99.90
39347;DHT22;26262;49.836;6.632;2024-02-21T04:25:39;7.20;99.90
39347;DHT22;26262;49.836;6.632;2024-02-21T04:28:05;7.20;99.90
39347;DHT22;26262;49.836;6.632;2024-02-21T04:30:30;7.10;99.90
39347;DHT22;26262;49.836;6.632;2024-02-21T04:32:56;7.00;99.90
39347;DHT22;26262;49.836;6.632;2024-02-21T04:35:21;7.00;99.90
39347;DHT22;26262;49.836;6.632;2024-02-21T04:37:47;7.00;99.90
39347;DHT22;26262;49.836;6.632;2024-02-21T04:40:12;7.00;99.90
39347;DHT22;26262;49.836;6.632;2024-02-21T04:42:39;6.90;99.90
39347;DHT22;26262;49.836;6.632;2024-02-21T04:45:05;6.90;99.90
39347;DHT22;26262;49.836;6.632;2024-02-21T04:47:31;7.00;99.90
39347;DHT22;26262;49.836;6.632;2024-02-21T04:49:56;6.90;99.90
39347;DHT22;26262;49.836;6.632;2024-02-21T04:52:22;6.80;99.90
39347;DHT22;26262;49.836;6.632;2024-02-21T04:54:47;6.90;99.90
39347;DHT22;26262;49.836;6.632;2024-02-21T04:57:13;6.90;99.90
39347;DHT22;26262;49.836;6.632;2024-02-21T04:59:43;6.80;99.90
39347;DHT22;26262;49.836;6.632;2024-02-21T05:02:09;6.80;99.90
39347;DHT22;26262;49.836;6.632;2024-02-21T05:04:34;6.80;99.90
39347;DHT22;26262;49.836;6.632;2024-02-21T05:07:02;6.80;99.90
39347;DHT22;26262;49.836;6.632;2024-02-21T05:09:27;6.70;99.90
39347;DHT22;26262;49.836;6.632;2024-02-21T05:11:53;6.80;99.90
39347;DHT22;26262;49.836;6.632;2024-02-21T05:14:18;6.80;99.90
39347;DHT22;26262;49.836;6.632;2024-02-21T05:16:44;6.70;99.90
39347;DHT22;26262;49.836;6.632;2024-02-21T05:19:09;6.80;99.90
39347;DHT22;26262;49.836;6.632;2024-02-21T05:21:35;6.80;99.90
39347;DHT22;26262;49.836;6.632;2024-02-21T05:24:00;6.90;99.90
39347;DHT22;26262;49.836;6.632;2024-02-21T05:26:27;6.80;99.90
39347;DHT22;26262;49.836;6.632;2024-02-21T05:28:53;6.80;99.90
39347;DHT22;26262;49.836;6.632;2024-02-21T05:31:19;6.80;99.90
39347;DHT22;26262;49.836;6.632;2024-02-21T05:33:45;6.70;99.90
39347;DHT22;26262;49.836;6.632;2024-02-21T05:36:11;6.70;99.90
39347;DHT22;26262;49.836;6.632;2024-02-21T05:38:37;6.80;99.90
39347;DHT22;26262;49.836;6.632;2024-02-21T05:41:03;6.80;99.90
39347;DHT22;26262;49.836;6.632;2024-02-21T05:43:29;6.70;99.90
39347;DHT22;26262;49.836;6.632;2024-02-21T05:45:55;6.70;99.90
39347;DHT22;26262;49.836;6.632;2024-02-21T05:48:23;6.70;99.90
39347;DHT22;26262;49.836;6.632;2024-02-21T05:50:49;6.80;99.90
39347;DHT22;26262;49.836;6.632;2024-02-21T05:53:15;6.80;99.90
39347;DHT22;26262;49.836;6.632;2024-02-21T05:55:41;6.80;99.90
39347;DHT22;26262;49.836;6.632;2024-02-21T05:58:06;6.80;99.90
39347;DHT22;26262;49.836;6.632;2024-02-21T06:00:33;6.80;99.90
39347;DHT22;26262;49.836;6.632;2024-02-21T06:02:59;7.00;99.90
39347;DHT22;26262;49.836;6.632;2024-02-21T06:05:24;6.80;99.90
39347;DHT22;26262;49.836;6.632;2024-02-21T06:07:50;6.90;99.90
39347;DHT22;26262;49.836;6.632;2024-02-21T06:10:15;7.00;99.90
39347;DHT22;26262;49.836;6.632;2024-02-21T06:12:41;6.90;99.90
39347;DHT22;26262;49.836;6.632;2024-02-21T06:15:07;6.90;99.90
39347;DHT22;26262;49.836;6.632;2024-02-21T06:17:33;6.90;99.90
39347;DHT22;26262;49.836;6.632;2024-02-21T06:19:58;6.90;99.90
39347;DHT22;26262;49.836;6.632;2024-02-21T06:22:24;7.00;99.90
39347;DHT22;26262;49.836;6.632;2024-02-21T06:24:49;6.90;99.90
39347;DHT22;26262;49.836;6.632;2024-02-21T06:27:15;6.90;99.90
39347;DHT22;26262;49.836;6.632;2024-02-21T06:29:41;6.90;99.90
39347;DHT22;26262;49.836;6.632;2024-02-21T06:32:07;7.00;99.90
39347;DHT22;26262;49.836;6.632;2024-02-21T06:34:33;7.00;99.90
39347;DHT22;26262;49.836;6.632;2024-02-21T06:36:58;7.10;99.90
39347;DHT22;26262;49.836;6.632;2024-02-21T06:39:24;7.00;99.90
39347;DHT22;26262;49.836;6.632;2024-02-21T06:41:49;7.10;99.90
39347;DHT22;26262;49.836;6.632;2024-02-21T06:44:19;7.00;99.90
39347;DHT22;26262;49.836;6.632;2024-02-21T06:46:44;6.90;99.90
39347;DHT22;26262;49.836;6.632;2024-02-21T06:49:10;6.90;99.90
39347;DHT22;26262;49.836;6.632;2024-02-21T06:51:42;7.00;99.90
39347;DHT22;26262;49.836;6.632;2024-02-21T06:54:08;6.90;99.90
39347;DHT22;26262;49.836;6.632;2024-02-21T06:56:33;6.90;99.90
39347;DHT22;26262;49.836;6.632;2024-02-21T06:58:59;7.00;99.90
39347;DHT22;26262;49.836;6.632;2024-02-21T07:01:24;7.00;99.90
39347;DHT22;26262;49.836;6.632;2024-02-21T07:03:50;7.00;99.90
39347;DHT22;26262;49.836;6.632;2024-02-21T07:06:16;7.10;99.90
39347;DHT22;26262;49.836;6.632;2024-02-21T07:08:42;7.10;99.90
39347;DHT22;26262;49.836;6.632;2024-02-21T07:11:07;7.00;99.90
39347;DHT22;26262;49.836;6.632;2024-02-21T07:13:33;7.10;99.90
39347;DHT22;26262;49.836;6.632;2024-02-21T07:15:58;7.10;99.90
39347;DHT22;26262;49.836;6.632;2024-02-21T07:18:24;7.10;99.90
39347;DHT22;26262;49.836;6.632;2024-02-21T07:20:51;7.10;99.90
39347;DHT22;26262;49.836;6.632;2024-02-21T07:23:17;7.20;99.90
39347;DHT22;26262;49.836;6.632;2024-02-21T07:25:42;7.10;99.90
39347;DHT22;26262;49.836;6.632;2024-02-21T07:28:08;7.10;99.90
39347;DHT22;26262;49.836;6.632;2024-02-21T07:30:34;7.10;99.90
39347;DHT22;26262;49.836;6.632;2024-02-21T07:32:59;7.10;99.90
39347;DHT22;26262;49.836;6.632;2024-02-21T07:35:25;7.20;99.90
39347;DHT22;26262;49.836;6.632;2024-02-21T07:37:50;7.10;99.90
39347;DHT22;26262;49.836;6.632;2024-02-21T07:40:16;7.20;99.90
39347;DHT22;26262;49.836;6.632;2024-02-21T07:42:42;7.20;99.90
39347;DHT22;26262;49.836;6.632;2024-02-21T07:45:08;7.30;99.90
39347;DHT22;26262;49.836;6.632;2024-02-21T07:47:35;7.30;99.90
39347;DHT22;26262;49.836;6.632;2024-02-21T07:50:02;7.30;99.90
39347;DHT22;26262;49.836;6.632;2024-02-21T07:52:27;7.30;99.90
39347;DHT22;26262;49.836;6.632;2024-02-21T07:54:53;7.20;99.90
39347;DHT22;26262;49.836;6.632;2024-02-21T07:57:19;7.40;99.90
39347;DHT22;26262;49.836;6.632;2024-02-21T07:59:44;7.40;99.90
39347;DHT22;26262;49.836;6.632;2024-02-21T08:02:10;7.40;99.90
39347;DHT22;26262;49.836;6.632;2024-02-21T08:04:36;7.50;99.90
39347;DHT22;26262;49.836;6.632;2024-02-21T08:07:02;7.50;99.90
39347;DHT22;26262;49.836;6.632;2024-02-21T08:09:28;7.50;99.90
39347;DHT22;26262;49.836;6.632;2024-02-21T08:11:54;7.60;99.90
39347;DHT22;26262;49.836;6.632;2024-02-21T08:14:21;7.70;99.90
39347;DHT22;26262;49.836;6.632;2024-02-21T08:16:46;7.60;99.90
39347;DHT22;26262;49.836;6.632;2024-02-21T08:19:12;7.70;99.90
39347;DHT22;26262;49.836;6.632;2024-02-21T08:21:38;7.70;99.90
39347;DHT22;26262;49.836;6.632;2024-02-21T08:24:04;7.80;99.90
39347;DHT22;26262;49.836;6.632;2024-02-21T08:26:29;7.80;99.90
39347;DHT22;26262;49.836;6.632;2024-02-21T08:28:57;7.80;99.90
39347;DHT22;26262;49.836;6.632;2024-02-21T08:31:26;7.80;99.90
39347;DHT22;26262;49.836;6.632;2024-02-21T08:33:57;7.90;99.90
39347;DHT22;26262;49.836;6.632;2024-02-21T08:36:30;7.90;99.90
39347;DHT22;26262;49.836;6.632;2024-02-21T08:38:57;7.90;99.90
39347;DHT22;26262;49.836;6.632;2024-02-21T08:41:26;7.90;99.90
39347;DHT22;26262;49.836;6.632;2024-02-21T08:43:52;8.00;99.90
39347;DHT22;26262;49.836;6.632;2024-02-21T08:46:22;8.00;99.90
39347;DHT22;26262;49.836;6.632;2024-02-21T08:48:52;8.00;99.90
39347;DHT22;26262;49.836;6.632;2024-02-21T08:51:18;8.10;99.90
39347;DHT22;26262;49.836;6.632;2024-02-21T08:53:47;8.10;99.90
39347;DHT22;26262;49.836;6.632;2024-02-21T08:56:13;8.00;99.90
39347;DHT22;26262;49.836;6.632;2024-02-21T08:58:42;8.10;99.90
39347;DHT22;26262;49.836;6.632;2024-02-21T09:01:08;8.10;99.90
39347;DHT22;26262;49.836;6.632;2024-02-21T09:03:36;8.10;99.90
39347;DHT22;26262;49.836;6.632;2024-02-21T09:06:03;8.20;99.90
39347;DHT22;26262;49.836;6.632;2024-02-21T09:08:29;8.20;99.90
39347;DHT22;26262;49.836;6.632;2024-02-21T09:10:55;8.30;99.90
39347;DHT22;26262;49.836;6.632;2024-02-21T09:13:20;8.40;99.90
39347;DHT22;26262;49.836;6.632;2024-02-21T09:15:47;8.40;99.90
39347;DHT22;26262;49.836;6.632;2024-02-21T09:18:13;8.40;99.90
39347;DHT22;26262;49.836;6.632;2024-02-21T09:20:38;8.30;99.90
39347;DHT22;26262;49.836;6.632;2024-02-21T09:23:04;8.30;99.90
39347;DHT22;26262;49.836;6.632;2024-02-21T09:25:29;8.40;99.90
39347;DHT22;26262;49.836;6.632;2024-02-21T09:27:55;8.40;99.90
39347;DHT22;26262;49.836;6.632;2024-02-21T09:30:23;8.60;99.90
39347;DHT22;26262;49.836;6.632;2024-02-21T09:32:49;8.60;99.90
39347;DHT22;26262;49.836;6.632;2024-02-21T09:35:14;8.60;99.90
39347;DHT22;26262;49.836;6.632;2024-02-21T09:37:40;8.70;99.90
39347;DHT22;26262;49.836;6.632;2024-02-21T09:40:06;8.80;99.90
39347;DHT22;26262;49.836;6.632;2024-02-21T09:42:41;8.70;99.90
39347;DHT22;26262;49.836;6.632;2024-02-21T09:45:23;8.90;99.90
39347;DHT22;26262;49.836;6.632;2024-02-21T09:50:47;8.90;99.90
39347;DHT22;26262;49.836;6.632;2024-02-21T09:53:14;9.00;99.90
39347;DHT22;26262;49.836;6.632;2024-02-21T09:55:40;9.10;99.90
39347;DHT22;26262;49.836;6.632;2024-02-21T09:58:07;9.20;99.90
39347;DHT22;26262;49.836;6.632;2024-02-21T10:00:35;9.10;99.90
39347;DHT22;26262;49.836;6.632;2024-02-21T10:03:01;9.00;99.90
39347;DHT22;26262;49.836;6.632;2024-02-21T10:05:27;9.20;99.90
39347;DHT22;26262;49.836;6.632;2024-02-21T10:07:53;9.00;99.90
39347;DHT22;26262;49.836;6.632;2024-02-21T10:10:18;9.10;99.90
39347;DHT22;26262;49.836;6.632;2024-02-21T10:12:51;9.10;99.90
39347;DHT22;26262;49.836;6.632;2024-02-21T10:15:20;9.10;99.90
39347;DHT22;26262;49.836;6.632;2024-02-21T10:17:59;9.10;99.90
39347;DHT22;26262;49.836;6.632;2024-02-21T10:20:25;9.20;99.90
39347;DHT22;26262;49.836;6.632;2024-02-21T10:23:04;9.30;99.90
39347;DHT22;26262;49.836;6.632;2024-02-21T10:25:35;9.30;99.90
39347;DHT22;26262;49.836;6.632;2024-02-21T10:28:03;9.40;99.90
39347;DHT22;26262;49.836;6.632;2024-02-21T10:30:29;9.40;99.90
39347;DHT22;26262;49.836;6.632;2024-02-21T10:32:55;9.30;99.90
39347;DHT22;26262;49.836;6.632;2024-02-21T10:35:32;9.20;99.90
39347;DHT22;26262;49.836;6.632;2024-02-21T10:37:59;9.40;99.90
39347;DHT22;26262;49.836;6.632;2024-02-21T10:40:28;9.40;99.90
39347;DHT22;26262;49.836;6.632;2024-02-21T10:43:01;9.40;99.90
39347;DHT22;26262;49.836;6.632;2024-02-21T10:45:31;9.40;99.90
39347;DHT22;26262;49.836;6.632;2024-02-21T10:48:12;9.40;99.90
39347;DHT22;26262;49.836;6.632;2024-02-21T10:56:32;9.40;99.90
39347;DHT22;26262;49.836;6.632;2024-02-21T10:59:06;9.40;99.90
39347;DHT22;26262;49.836;6.632;2024-02-21T11:01:32;9.40;99.90
39347;DHT22;26262;49.836;6.632;2024-02-21T11:04:03;9.40;99.90
39347;DHT22;26262;49.836;6.632;2024-02-21T11:06:29;9.50;99.90
39347;DHT22;26262;49.836;6.632;2024-02-21T11:09:06;9.50;99.90
39347;DHT22;26262;49.836;6.632;2024-02-21T11:11:35;9.50;99.90
39347;DHT22;26262;49.836;6.632;2024-02-21T11:14:18;9.60;99.90
39347;DHT22;26262;49.836;6.632;2024-02-21T11:16:44;9.60;99.90
39347;DHT22;26262;49.836;6.632;2024-02-21T11:19:20;9.60;99.90
39347;DHT22;26262;49.836;6.632;2024-02-21T11:21:45;9.50;99.90
39347;DHT22;26262;49.836;6.632;2024-02-21T11:24:11;9.40;99.90
39347;DHT22;26262;49.836;6.632;2024-02-21T11:26:37;9.50;99.90
39347;DHT22;26262;49.836;6.632;2024-02-21T11:29:03;9.60;99.90
39347;DHT22;26262;49.836;6.632;2024-02-21T11:31:44;9.60;99.90
39347;DHT22;26262;49.836;6.632;2024-02-21T11:34:11;9.60;99.90
39347;DHT22;26262;49.836;6.632;2024-02-21T11:36:47;9.60;99.90
39347;DHT22;26262;49.836;6.632;2024-02-21T11:39:24;9.60;99.90
39347;DHT22;26262;49.836;6.632;2024-02-21T11:42:07;9.60;99.90
39347;DHT22;26262;49.836;6.632;2024-02-21T11:44:34;9.60;99.90
39347;DHT22;26262;49.836;6.632;2024-02-21T11:46:59;9.70;99.90
39347;DHT22;26262;49.836;6.632;2024-02-21T11:49:26;9.70;99.90
39347;DHT22;26262;49.836;6.632;2024-02-21T11:52:02;9.60;99.90
39347;DHT22;26262;49.836;6.632;2024-02-21T11:54:30;9.70;99.90
39347;DHT22;26262;49.836;6.632;2024-02-21T11:56:56;9.70;99.90
39347;DHT22;26262;49.836;6.632;2024-02-21T11:59:21;9.80;99.90
39347;DHT22;26262;49.836;6.632;2024-02-21T12:01:50;9.80;99.90
39347;DHT22;26262;49.836;6.632;2024-02-21T12:04:18;9.80;99.90
39347;DHT22;26262;49.836;6.632;2024-02-21T12:06:45;9.60;99.90
39347;DHT22;26262;49.836;6.632;2024-02-21T12:09:14;9.50;99.90
39347;DHT22;26262;49.836;6.632;2024-02-21T12:11:42;9.50;99.90
39347;DHT22;26262;49.836;6.632;2024-02-21T12:14:08;9.60;99.90
39347;DHT22;26262;49.836;6.632;2024-02-21T12:16:35;9.60;99.90
39347;DHT22;26262;49.836;6.632;2024-02-21T12:19:02;9.70;99.90
39347;DHT22;26262;49.836;6.632;2024-02-21T12:21:33;9.70;99.90
39347;DHT22;26262;49.836;6.632;2024-02-21T12:26:37;9.70;99.90
39347;DHT22;26262;49.836;6.632;2024-02-21T12:29:03;9.70;99.90
39347;DHT22;26262;49.836;6.632;2024-02-21T12:31:28;9.70;99.90
39347;DHT22;26262;49.836;6.632;2024-02-21T12:33:54;9.80;99.90
39347;DHT22;26262;49.836;6.632;2024-02-21T12:36:20;9.80;99.90
39347;DHT22;26262;49.836;6.632;2024-02-21T12:38:46;9.80;99.90
39347;DHT22;26262;49.836;6.632;2024-02-21T12:41:14;9.80;99.90
39347;DHT22;26262;49.836;6.632;2024-02-21T12:43:40;9.80;99.90
39347;DHT22;26262;49.836;6.632;2024-02-21T12:46:05;9.80;99.90
39347;DHT22;26262;49.836;6.632;2024-02-21T12:48:33;9.70;99.90
39347;DHT22;26262;49.836;6.632;2024-02-21T12:50:58;9.80;99.90
39347;DHT22;26262;49.836;6.632;2024-02-21T12:53:24;9.80;99.90
39347;DHT22;26262;49.836;6.632;2024-02-21T12:55:50;9.90;99.90
39347;DHT22;26262;49.836;6.632;2024-02-21T12:58:16;10.00;99.90
39347;DHT22;26262;49.836;6.632;2024-02-21T13:00:42;10.10;99.90
39347;DHT22;26262;49.836;6.632;2024-02-21T13:03:11;10.10;99.90
39347;DHT22;26262;49.836;6.632;2024-02-21T13:05:36;10.20;99.90
39347;DHT22;26262;49.836;6.632;2024-02-21T13:08:02;10.30;99.90
39347;DHT22;26262;49.836;6.632;2024-02-21T13:10:28;10.30;99.90
39347;DHT22;26262;49.836;6.632;2024-02-21T13:12:53;10.30;99.90
39347;DHT22;26262;49.836;6.632;2024-02-21T13:15:20;10.40;99.90
39347;DHT22;26262;49.836;6.632;2024-02-21T13:17:45;10.50;99.90
39347;DHT22;26262;49.836;6.632;2024-02-21T13:20:11;10.50;99.90
39347;DHT22;26262;49.836;6.632;2024-02-21T13:22:37;10.60;99.90
39347;DHT22;26262;49.836;6.632;2024-02-21T13:25:04;10.50;99.90
39347;DHT22;26262;49.836;6.632;2024-02-21T13:27:30;10.50;99.90
39347;DHT22;26262;49.836;6.632;2024-02-21T13:29:56;10.40;99.90
39347;DHT22;26262;49.836;6.632;2024-02-21T13:32:21;10.40;99.90
39347;DHT22;26262;49.836;6.632;2024-02-21T13:34:47;10.40;99.90
39347;DHT22;26262;49.836;6.632;2024-02-21T13:37:12;10.50;99.90
39347;DHT22;26262;49.836;6.632;2024-02-21T13:39:39;10.50;99.90
39347;DHT22;26262;49.836;6.632;2024-02-21T13:42:05;10.50;99.90
39347;DHT22;26262;49.836;6.632;2024-02-21T13:44:31;10.40;99.90
39347;DHT22;26262;49.836;6.632;2024-02-21T13:46:57;10.40;99.90
39347;DHT22;26262;49.836;6.632;2024-02-21T13:49:22;10.40;99.90
39347;DHT22;26262;49.836;6.632;2024-02-21T13:51:48;10.40;99.90
39347;DHT22;26262;49.836;6.632;2024-02-21T13:54:13;10.50;99.90
39347;DHT22;26262;49.836;6.632;2024-02-21T13:56:42;10.50;99.90
39347;DHT22;26262;49.836;6.632;2024-02-21T13:59:08;10.50;99.90
39347;DHT22;26262;49.836;6.632;2024-02-21T14:01:34;10.50;99.90
39347;DHT22;26262;49.836;6.632;2024-02-21T14:04:01;10.60;99.90
39347;DHT22;26262;49.836;6.632;2024-02-21T14:06:27;10.60;99.90
39347;DHT22;26262;49.836;6.632;2024-02-21T14:08:52;10.70;99.90
39347;DHT22;26262;49.836;6.632;2024-02-21T14:11:18;10.60;99.90
39347;DHT22;26262;49.836;6.632;2024-02-21T14:13:43;10.50;99.90
39347;DHT22;26262;49.836;6.632;2024-02-21T14:16:10;10.50;99.90
39347;DHT22;26262;49.836;6.632;2024-02-21T14:18:40;10.50;99.90
39347;DHT22;26262;49.836;6.632;2024-02-21T14:21:08;10.40;99.90
39347;DHT22;26262;49.836;6.632;2024-02-21T14:23:38;10.40;99.90
39347;DHT22;26262;49.836;6.632;2024-02-21T14:26:05;10.50;99.90
39347;DHT22;26262;49.836;6.632;2024-02-21T14:28:32;10.50;99.90
39347;DHT22;26262;49.836;6.632;2024-02-21T14:30:59;10.60;99.90
39347;DHT22;26262;49.836;6.632;2024-02-21T14:33:26;10.50;99.90
39347;DHT22;26262;49.836;6.632;2024-02-21T14:35:52;10.60;99.90
39347;DHT22;26262;49.836;6.632;2024-02-21T14:38:18;10.60;99.90
39347;DHT22;26262;49.836;6.632;2024-02-21T14:40:44;10.60;99.90
39347;DHT22;26262;49.836;6.632;2024-02-21T14:43:10;10.50;99.90
39347;DHT22;26262;49.836;6.632;2024-02-21T14:45:36;10.50;99.90
39347;DHT22;26262;49.836;6.632;2024-02-21T14:48:03;10.40;99.90
39347;DHT22;26262;49.836;6.632;2024-02-21T14:50:29;10.30;99.90
39347;DHT22;26262;49.836;6.632;2024-02-21T14:52:55;10.30;99.90
39347;DHT22;26262;49.836;6.632;2024-02-21T14:55:20;10.30;99.90
39347;DHT22;26262;49.836;6.632;2024-02-21T14:57:46;10.30;99.90
39347;DHT22;26262;49.836;6.632;2024-02-21T15:00:11;10.30;99.90
39347;DHT22;26262;49.836;6.632;2024-02-21T15:02:38;10.30;99.90
39347;DHT22;26262;49.836;6.632;2024-02-21T15:05:04;10.40;99.90
39347;DHT22;26262;49.836;6.632;2024-02-21T15:07:31;10.20;99.90
39347;DHT22;26262;49.836;6.632;2024-02-21T15:09:56;10.20;99.90
39347;DHT22;26262;49.836;6.632;2024-02-21T15:12:22;10.30;99.90
39347;DHT22;26262;49.836;6.632;2024-02-21T15:14:49;10.30;99.90
39347;DHT22;26262;49.836;6.632;2024-02-21T15:17:14;10.30;99.90
39347;DHT22;26262;49.836;6.632;2024-02-21T15:19:40;10.30;99.90
39347;DHT22;26262;49.836;6.632;2024-02-21T15:22:12;10.20;99.90
39347;DHT22;26262;49.836;6.632;2024-02-21T15:24:39;10.20;99.90
39347;DHT22;26262;49.836;6.632;2024-02-21T15:27:04;10.20;99.90
39347;DHT22;26262;49.836;6.632;2024-02-21T15:29:30;10.10;99.90
39347;DHT22;26262;49.836;6.632;2024-02-21T15:31:56;10.20;99.90
39347;DHT22;26262;49.836;6.632;2024-02-21T15:34:21;10.20;99.90
39347;DHT22;26262;49.836;6.632;2024-02-21T15:36:47;10.10;99.90
39347;DHT22;26262;49.836;6.632;2024-02-21T15:39:13;10.10;99.90
39347;DHT22;26262;49.836;6.632;2024-02-21T15:41:38;10.10;99.90
39347;DHT22;26262;49.836;6.632;2024-02-21T15:44:04;10.00;99.90
39347;DHT22;26262;49.836;6.632;2024-02-21T15:46:30;9.90;99.90
39347;DHT22;26262;49.836;6.632;2024-02-21T15:49:03;9.90;99.90